createdAt,value
2018-11-21T00:00:17.472Z,89.90
2018-11-21T00:02:46.559Z,89.80
2018-11-21T00:05:15.443Z,89.80
2018-11-21T00:07:44.359Z,89.70
2018-11-21T00:10:13.657Z,89.60
2018-11-21T00:12:45.281Z,89.50
2018-11-21T00:15:14.119Z,89.60
2018-11-21T00:17:42.982Z,89.80
2018-11-21T00:20:11.856Z,89.70
2018-11-21T00:22:40.671Z,89.60
2018-11-21T00:25:09.643Z,89.60
2018-11-21T00:27:38.424Z,89.70
2018-11-21T00:30:09.996Z,89.70
2018-11-21T00:32:38.864Z,89.70
2018-11-21T00:35:08.827Z,89.90
2018-11-21T00:37:37.698Z,89.90
2018-11-21T00:40:11.184Z,89.80
2018-11-21T00:42:46.372Z,89.80
2018-11-21T00:45:09.786Z,89.70
2018-11-21T00:47:38.652Z,89.70
2018-11-21T00:50:07.876Z,89.60
2018-11-21T00:52:36.979Z,89.50
2018-11-21T00:55:06.439Z,89.60
2018-11-21T00:57:35.153Z,89.50
2018-11-21T01:00:04.103Z,89.50
2018-11-21T01:02:32.958Z,89.50
2018-11-21T01:05:01.712Z,89.90
2018-11-21T01:07:30.681Z,89.80
2018-11-21T01:09:59.590Z,89.70
2018-11-21T01:12:28.380Z,89.80
2018-11-21T01:14:57.305Z,89.80
2018-11-21T01:17:25.992Z,89.90
2018-11-21T01:19:54.760Z,90.00
2018-11-21T01:22:23.461Z,90.00
2018-11-21T01:24:52.265Z,90.10
2018-11-21T01:27:21.144Z,90.10
2018-11-21T01:29:50.200Z,89.90
2018-11-21T01:32:19.009Z,90.00
2018-11-21T01:34:47.725Z,90.00
2018-11-21T01:37:16.419Z,90.10
2018-11-21T01:39:45.289Z,90.10
2018-11-21T01:42:14.048Z,90.10
2018-11-21T01:44:42.852Z,90.20
2018-11-21T01:47:11.764Z,90.10
2018-11-21T01:49:40.412Z,90.00
2018-11-21T01:52:09.239Z,90.00
2018-11-21T01:54:37.900Z,90.00
2018-11-21T01:57:06.801Z,90.00
2018-11-21T01:59:35.545Z,89.90
2018-11-21T02:02:04.290Z,89.90
2018-11-21T02:04:33.055Z,90.00
2018-11-21T02:07:01.900Z,90.00
2018-11-21T02:09:30.648Z,90.00
2018-11-21T02:11:59.446Z,90.10
2018-11-21T02:14:28.242Z,90.10
2018-11-21T02:16:56.889Z,90.10
2018-11-21T02:19:25.607Z,90.10
2018-11-21T02:21:54.378Z,90.10
2018-11-21T02:24:23.062Z,90.20
2018-11-21T02:26:51.880Z,90.10
2018-11-21T02:29:20.644Z,90.20
2018-11-21T02:31:49.428Z,90.10
2018-11-21T02:34:18.226Z,90.20
2018-11-21T02:36:47.012Z,90.20
2018-11-21T02:39:15.657Z,90.20
2018-11-21T02:41:44.707Z,90.10
2018-11-21T02:44:13.389Z,90.10
2018-11-21T02:46:42.040Z,90.10
2018-11-21T02:49:10.867Z,90.30
2018-11-21T02:51:39.824Z,90.20
2018-11-21T02:54:08.608Z,90.20
2018-11-21T02:57:18.081Z,90.30
2018-11-21T02:59:47.155Z,90.20
2018-11-21T03:02:15.961Z,90.20
2018-11-21T03:04:44.643Z,90.10
2018-11-21T03:07:13.314Z,90.20
2018-11-21T03:09:42.121Z,90.20
2018-11-21T03:12:10.912Z,90.20
2018-11-21T03:14:39.689Z,90.20
2018-11-21T03:17:08.485Z,90.20
2018-11-21T03:19:37.263Z,90.20
2018-11-21T03:22:06.399Z,90.20
2018-11-21T03:24:35.265Z,90.20
2018-11-21T03:27:04.067Z,90.20
2018-11-21T03:29:32.819Z,90.30
2018-11-21T03:32:01.765Z,90.70
2018-11-21T03:34:30.602Z,90.30
2018-11-21T03:36:59.506Z,90.20
2018-11-21T03:39:28.221Z,90.30
2018-11-21T03:41:57.626Z,90.30
2018-11-21T03:44:26.313Z,90.20
2018-11-21T03:46:54.980Z,90.30
2018-11-21T03:49:23.844Z,90.20
2018-11-21T03:51:52.740Z,90.10
2018-11-21T03:54:21.571Z,90.20
2018-11-21T03:56:50.349Z,90.20
2018-11-21T03:59:19.323Z,90.30
2018-11-21T04:01:48.038Z,90.40
2018-11-21T04:04:16.894Z,90.30
2018-11-21T04:06:45.671Z,90.10
2018-11-21T04:09:14.599Z,90.10
2018-11-21T04:11:43.581Z,90.10
2018-11-21T04:14:12.574Z,90.10
2018-11-21T04:16:41.493Z,90.00
2018-11-21T04:19:10.125Z,90.10
2018-11-21T04:21:38.820Z,90.10
2018-11-21T04:24:07.562Z,90.20
2018-11-21T04:26:36.392Z,90.10
2018-11-21T04:29:05.191Z,90.10
2018-11-21T04:31:33.859Z,90.10
2018-11-21T04:34:02.786Z,90.10
2018-11-21T04:36:31.456Z,90.10
2018-11-21T04:39:00.153Z,90.00
2018-11-21T04:41:28.955Z,90.00
2018-11-21T04:43:57.814Z,90.10
2018-11-21T04:46:26.665Z,90.00
2018-11-21T04:48:55.389Z,90.00
2018-11-21T04:51:24.069Z,89.90
2018-11-21T04:53:55.588Z,89.90
2018-11-21T04:56:24.433Z,89.80
2018-11-21T04:58:53.311Z,89.70
2018-11-21T05:01:22.138Z,90.00
2018-11-21T05:03:51.113Z,90.00
2018-11-21T05:06:19.904Z,90.00
2018-11-21T05:08:48.619Z,89.70
2018-11-21T05:11:17.261Z,89.70
2018-11-21T05:13:46.074Z,89.80
2018-11-21T05:16:14.865Z,89.80
2018-11-21T05:18:43.750Z,90.00
2018-11-21T05:21:12.404Z,90.10
2018-11-21T05:23:41.205Z,90.20
2018-11-21T05:26:10.008Z,90.20
2018-11-21T05:28:38.631Z,90.10
2018-11-21T05:31:07.489Z,90.10
2018-11-21T05:33:36.278Z,90.20
2018-11-21T05:36:05.255Z,90.10
2018-11-21T05:38:33.980Z,90.10
2018-11-21T05:41:02.712Z,90.20
2018-11-21T05:43:31.414Z,90.20
2018-11-21T05:46:00.203Z,90.20
2018-11-21T05:48:28.878Z,90.00
2018-11-21T05:50:57.672Z,89.90
2018-11-21T05:53:26.477Z,90.00
2018-11-21T05:55:55.448Z,90.00
2018-11-21T05:58:24.357Z,90.00
2018-11-21T06:00:53.138Z,90.00
2018-11-21T06:03:22.052Z,90.10
2018-11-21T06:05:50.804Z,90.10
2018-11-21T06:08:19.691Z,90.00
2018-11-21T06:10:48.490Z,90.00
2018-11-21T06:13:17.320Z,90.00
2018-11-21T06:15:46.129Z,89.90
2018-11-21T06:18:14.966Z,90.00
2018-11-21T06:20:43.867Z,90.00
2018-11-21T06:23:12.698Z,90.00
2018-11-21T06:25:41.521Z,89.90
2018-11-21T06:28:10.577Z,90.00
2018-11-21T06:30:39.431Z,90.00
2018-11-21T06:33:08.234Z,90.00
2018-11-21T06:35:37.209Z,89.80
2018-11-21T06:38:06.010Z,89.90
2018-11-21T06:40:34.779Z,89.90
2018-11-21T06:43:03.691Z,90.10
2018-11-21T06:45:32.600Z,90.00
2018-11-21T06:48:01.260Z,90.10
2018-11-21T06:50:30.160Z,90.10
2018-11-21T06:52:59.180Z,90.00
2018-11-21T06:55:27.940Z,90.10
2018-11-21T06:57:59.272Z,90.10
2018-11-21T07:00:28.197Z,90.00
2018-11-21T07:02:57.157Z,90.00
2018-11-21T07:05:26.090Z,89.90
2018-11-21T07:07:54.952Z,89.80
2018-11-21T07:10:23.742Z,89.80
2018-11-21T07:12:52.656Z,89.80
2018-11-21T07:15:21.418Z,89.70
2018-11-21T07:17:50.211Z,89.60
2018-11-21T07:20:19.117Z,89.90
2018-11-21T07:22:47.874Z,89.90
2018-11-21T07:25:20.759Z,90.00
2018-11-21T07:27:49.700Z,90.00
2018-11-21T07:30:19.059Z,90.00
2018-11-21T07:32:47.937Z,90.00
2018-11-21T07:35:18.153Z,90.10
2018-11-21T07:37:46.148Z,90.10
2018-11-21T07:40:15.743Z,90.00
2018-11-21T07:42:44.539Z,90.20
2018-11-21T07:45:14.510Z,90.20
2018-11-21T07:47:43.956Z,90.30
2018-11-21T07:50:14.918Z,90.50
2018-11-21T07:52:43.817Z,90.60
2018-11-21T07:55:13.092Z,90.60
2018-11-21T07:57:43.451Z,90.50
2018-11-21T08:00:46.197Z,90.50
2018-11-21T08:03:15.546Z,90.50
2018-11-21T08:05:46.664Z,90.40
2018-11-21T08:08:28.051Z,90.50
2018-11-21T08:11:22.119Z,90.50
2018-11-21T08:14:10.154Z,90.60
2018-11-21T08:17:07.433Z,90.50
2018-11-21T08:19:54.258Z,90.50
2018-11-21T08:22:44.480Z,90.40
2018-11-21T08:25:31.578Z,90.40
2018-11-21T08:28:25.403Z,90.30
2018-11-21T08:30:54.245Z,90.60
2018-11-21T08:33:23.204Z,90.40
2018-11-21T08:35:51.974Z,90.50
2018-11-21T08:38:20.894Z,90.50
2018-11-21T08:40:49.750Z,90.50
2018-11-21T08:43:18.549Z,90.40
2018-11-21T08:45:47.502Z,90.50
2018-11-21T08:48:17.133Z,90.30
2018-11-21T08:50:46.039Z,90.40
2018-11-21T08:53:17.208Z,90.40
2018-11-21T08:55:46.184Z,90.40
2018-11-21T08:58:15.058Z,90.20
2018-11-21T09:00:44.097Z,90.40
2018-11-21T09:03:13.032Z,90.40
2018-11-21T09:05:41.857Z,90.20
2018-11-21T09:08:10.755Z,90.20
2018-11-21T09:10:39.603Z,90.10
2018-11-21T09:13:08.409Z,90.40
2018-11-21T09:15:37.230Z,89.60
2018-11-21T09:18:06.186Z,90.20
2018-11-21T09:20:34.984Z,90.50
2018-11-21T09:23:03.904Z,90.40
2018-11-21T09:25:32.791Z,90.20
2018-11-21T09:28:01.697Z,90.20
2018-11-21T09:30:30.551Z,90.10
2018-11-21T09:32:59.852Z,90.40
2018-11-21T09:35:28.784Z,89.80
2018-11-21T09:37:57.442Z,90.10
2018-11-21T09:40:26.230Z,90.00
2018-11-21T09:42:56.143Z,90.00
2018-11-21T09:45:25.356Z,89.90
2018-11-21T09:47:54.208Z,89.90
2018-11-21T09:50:27.314Z,89.90
2018-11-21T09:52:56.099Z,89.90
2018-11-21T09:55:24.890Z,90.00
2018-11-21T09:57:53.775Z,89.80
2018-11-21T10:00:58.817Z,89.80
2018-11-21T10:03:38.118Z,89.90
2018-11-21T10:06:12.785Z,89.70
2018-11-21T10:08:46.004Z,90.00
2018-11-21T10:11:15.095Z,89.70
2018-11-21T10:13:43.963Z,89.70
2018-11-21T10:16:12.762Z,89.90
2018-11-21T10:18:45.530Z,90.00
2018-11-21T10:21:15.984Z,89.60
2018-11-21T10:23:45.265Z,89.30
2018-11-21T10:26:13.728Z,90.20
2018-11-21T10:28:43.143Z,88.70
2018-11-21T10:31:12.014Z,88.60
2018-11-21T10:33:40.710Z,88.80
2018-11-21T10:36:09.541Z,88.90
2018-11-21T10:38:38.390Z,88.80
2018-11-21T10:41:07.284Z,88.90
2018-11-21T10:43:36.819Z,88.80
2018-11-21T10:46:06.057Z,88.90
2018-11-21T10:48:34.916Z,88.50
2018-11-21T10:51:03.938Z,88.40
2018-11-21T10:53:32.860Z,88.30
2018-11-21T10:56:01.709Z,88.10
2018-11-21T10:58:30.508Z,87.90
2018-11-21T11:01:22.829Z,88.10
2018-11-21T11:03:57.453Z,87.80
2018-11-21T11:06:44.139Z,87.90
2018-11-21T11:09:44.715Z,87.80
2018-11-21T11:12:29.657Z,87.70
2018-11-21T11:15:17.642Z,87.50
2018-11-21T11:18:04.264Z,87.20
2018-11-21T11:20:52.294Z,86.90
2018-11-21T11:23:38.853Z,86.70
2018-11-21T11:26:26.721Z,86.70
2018-11-21T11:29:17.856Z,86.70
2018-11-21T11:31:58.251Z,86.20
2018-11-21T11:34:55.047Z,85.80
2018-11-21T11:37:41.755Z,85.50
2018-11-21T11:40:36.007Z,85.80
2018-11-21T11:43:30.097Z,85.50
2018-11-21T11:46:18.032Z,85.30
2018-11-21T11:49:18.177Z,85.00
2018-11-21T11:52:04.754Z,84.50
2018-11-21T11:54:43.690Z,84.30
2018-11-21T11:57:30.516Z,83.80
2018-11-21T12:00:20.813Z,84.00
2018-11-21T12:03:07.588Z,83.70
2018-11-21T12:06:01.255Z,83.10
2018-11-21T12:08:44.373Z,82.70
2018-11-21T12:11:32.277Z,82.90
2018-11-21T12:14:35.169Z,82.40
2018-11-21T12:17:26.016Z,81.40
2018-11-21T12:20:13.948Z,81.80
2018-11-21T12:23:14.086Z,80.90
2018-11-21T12:26:16.947Z,80.00
2018-11-21T12:28:58.763Z,79.30
2018-11-21T12:31:45.267Z,78.40
2018-11-21T12:34:28.498Z,78.00
2018-11-21T12:37:28.619Z,79.50
2018-11-21T12:40:15.481Z,79.60
2018-11-21T12:43:21.368Z,79.30
2018-11-21T12:46:15.153Z,80.00
2018-11-21T12:49:01.762Z,79.70
2018-11-21T12:52:01.589Z,79.20
2018-11-21T12:54:47.895Z,78.50
2018-11-21T12:57:38.795Z,79.20
2018-11-21T13:00:43.307Z,79.00
2018-11-21T13:03:49.492Z,79.10
2018-11-21T13:06:46.157Z,79.00
2018-11-21T13:09:32.411Z,79.40
2018-11-21T13:12:23.255Z,79.40
2018-11-21T13:15:09.792Z,79.00
2018-11-21T13:17:56.320Z,79.20
2018-11-21T13:20:45.084Z,78.90
2018-11-21T13:23:48.379Z,79.10
2018-11-21T13:26:35.019Z,79.40
2018-11-21T13:29:22.891Z,79.40
2018-11-21T13:32:09.190Z,79.20
2018-11-21T13:35:05.956Z,79.60
2018-11-21T13:37:52.989Z,79.70
2018-11-21T13:40:29.419Z,79.80
2018-11-21T13:43:26.227Z,79.90
2018-11-21T13:46:14.146Z,80.20
2018-11-21T13:48:57.958Z,80.40
2018-11-21T13:51:45.726Z,80.40
2018-11-21T13:54:32.517Z,80.40
2018-11-21T13:57:01.261Z,80.40
2018-11-21T13:59:30.051Z,80.20
2018-11-21T14:01:58.870Z,80.00
2018-11-21T14:04:27.616Z,79.30
2018-11-21T14:06:56.528Z,79.50
2018-11-21T14:09:25.437Z,79.30
2018-11-21T14:11:54.329Z,78.60
2018-11-21T14:14:23.192Z,78.00
2018-11-21T14:16:52.025Z,76.60
2018-11-21T14:19:21.013Z,77.60
2018-11-21T14:21:49.920Z,76.50
2018-11-21T14:24:18.684Z,76.80
2018-11-21T14:26:47.593Z,77.20
2018-11-21T14:29:16.479Z,77.20
2018-11-21T14:31:45.657Z,77.00
2018-11-21T14:34:14.526Z,75.90
2018-11-21T14:36:43.321Z,77.50
2018-11-21T14:39:13.485Z,76.20
2018-11-21T14:41:43.753Z,76.20
2018-11-21T14:44:12.867Z,76.70
2018-11-21T14:46:42.842Z,76.80
2018-11-21T14:49:11.683Z,76.40
2018-11-21T14:51:40.554Z,76.20
2018-11-21T14:54:09.485Z,77.10
2018-11-21T14:56:38.469Z,76.70
2018-11-21T14:59:07.219Z,76.90
2018-11-21T15:01:38.813Z,77.30
